Pagrindinis puslapis
METAR-TAF:

METAR-TAF

Oro uostai :

Tajuanas, Kinija

platuma: 37-47N, ilguma: 112-33E, Aukštis: 779 m

Dabartinis oras

Ataskaita buvo paskelbta 28 minutes, ne 09:00 UTC
Vėjas 2 kt nuo kintamojo kryptimis
Temperatūra 4°C
Drėgmė 44%
Slėgis 1027 hPa
Matomumas: 2200 m
migla

METAR: ZBYN 250900Z VRB01MPS 2200 HZ NSC 04/M07 Q1027 BECMG TL1040 3000

Laikas: 17:28 (09:28 UTC)

Prognozė

Ataskaita buvo paskelbta 2 valandos ir 49 minutes, ne 06:39 UTC
Prognozė galioja nuo 25 metu 06 UTC su 26 metu 06 UTC
Vėjas 6 kt iš Rytų
Matomumas: 2000 m
migla
Tapsmas
nuo 25 metu 10 UTC su 25 metu 11 UTC
Matomumas: 3000 m
Tapsmas
nuo 25 metu 22 UTC su 25 metu 23 UTC
Matomumas: 1400 m

TAF: ZBYN 250639Z 2506/2606 09003MPS 2000 HZ NSC TX06/2507Z TNM06/2522Z BECMG 2510/2511 3000 BECMG 2522/2523 1400

Orai ataskaitas ir orų prognozės (METAR, TAF).

turimą stotys yra geltonos ir raudonos taškus žemėlapyje.

Perkelti pele per norėdami pamatyti stoties vardą.

Tada spustelėkite, norėdami matyti oro stebėjimo ir prognozės.

Norėdami pakeisti žemėlapį: spustelėkite ant žalios mygtukų su juodo kryžiaus žemyn,; žalią mygtuką su brūkšneliu, jei norite nutolinti; arba žalių rodyklių gretimoms žemėlapius.


METAR-TAF: